sensor_id;sensor_type;location;lat;lon;timestamp;P1;durP1;ratioP1;P2;durP2;ratioP2
1613;SDS011;800;48.824;9.346;2023-08-24T00:00:31;6.93;;;6.23;;
1613;SDS011;800;48.824;9.346;2023-08-24T00:02:58;10.87;;;7.00;;
1613;SDS011;800;48.824;9.346;2023-08-24T00:05:24;7.50;;;6.80;;
1613;SDS011;800;48.824;9.346;2023-08-24T00:07:49;13.23;;;6.73;;
1613;SDS011;800;48.824;9.346;2023-08-24T00:10:16;7.70;;;7.03;;
1613;SDS011;800;48.824;9.346;2023-08-24T00:12:43;8.23;;;7.37;;
1613;SDS011;800;48.824;9.346;2023-08-24T00:15:08;6.93;;;6.33;;
1613;SDS011;800;48.824;9.346;2023-08-24T00:17:35;7.50;;;6.80;;
1613;SDS011;800;48.824;9.346;2023-08-24T00:20:02;7.67;;;6.90;;
1613;SDS011;800;48.824;9.346;2023-08-24T00:22:29;8.07;;;7.20;;
1613;SDS011;800;48.824;9.346;2023-08-24T00:24:55;6.80;;;6.30;;
1613;SDS011;800;48.824;9.346;2023-08-24T00:27:21;7.50;;;6.80;;
1613;SDS011;800;48.824;9.346;2023-08-24T00:29:46;8.07;;;7.13;;
1613;SDS011;800;48.824;9.346;2023-08-24T00:32:12;8.30;;;7.50;;
1613;SDS011;800;48.824;9.346;2023-08-24T00:34:37;7.90;;;7.30;;
1613;SDS011;800;48.824;9.346;2023-08-24T00:37:03;7.03;;;6.40;;
1613;SDS011;800;48.824;9.346;2023-08-24T00:39:28;7.10;;;6.60;;
1613;SDS011;800;48.824;9.346;2023-08-24T00:41:54;9.20;;;6.60;;
1613;SDS011;800;48.824;9.346;2023-08-24T00:44:20;7.27;;;6.70;;
1613;SDS011;800;48.824;9.346;2023-08-24T00:46:45;9.93;;;7.50;;
1613;SDS011;800;48.824;9.346;2023-08-24T00:49:11;9.30;;;7.13;;
1613;SDS011;800;48.824;9.346;2023-08-24T00:51:37;8.27;;;6.60;;
1613;SDS011;800;48.824;9.346;2023-08-24T00:54:03;8.33;;;7.23;;
1613;SDS011;800;48.824;9.346;2023-08-24T00:56:29;8.77;;;6.93;;
1613;SDS011;800;48.824;9.346;2023-08-24T00:58:55;7.73;;;7.13;;
1613;SDS011;800;48.824;9.346;2023-08-24T01:01:22;9.20;;;7.30;;
1613;SDS011;800;48.824;9.346;2023-08-24T01:03:49;9.20;;;6.90;;
1613;SDS011;800;48.824;9.346;2023-08-24T01:06:15;7.67;;;7.17;;
1613;SDS011;800;48.824;9.346;2023-08-24T01:08:40;7.30;;;6.60;;
1613;SDS011;800;48.824;9.346;2023-08-24T01:16:31;8.53;;;7.70;;
1613;SDS011;800;48.824;9.346;2023-08-24T01:18:58;7.83;;;7.13;;
1613;SDS011;800;48.824;9.346;2023-08-24T01:21:27;8.30;;;7.53;;
1613;SDS011;800;48.824;9.346;2023-08-24T01:24:04;8.60;;;7.83;;
1613;SDS011;800;48.824;9.346;2023-08-24T01:26:37;8.10;;;7.40;;
1613;SDS011;800;48.824;9.346;2023-08-24T01:29:04;7.80;;;6.80;;
1613;SDS011;800;48.824;9.346;2023-08-24T01:31:30;8.10;;;7.33;;
1613;SDS011;800;48.824;9.346;2023-08-24T01:33:56;7.40;;;6.80;;
1613;SDS011;800;48.824;9.346;2023-08-24T01:36:21;7.83;;;7.07;;
1613;SDS011;800;48.824;9.346;2023-08-24T01:38:53;8.30;;;7.50;;
1613;SDS011;800;48.824;9.346;2023-08-24T01:41:24;8.40;;;7.37;;
1613;SDS011;800;48.824;9.346;2023-08-24T01:43:54;11.20;;;7.50;;
1613;SDS011;800;48.824;9.346;2023-08-24T01:46:22;8.13;;;6.97;;
1613;SDS011;800;48.824;9.346;2023-08-24T01:48:50;7.10;;;6.50;;
1613;SDS011;800;48.824;9.346;2023-08-24T01:51:17;8.53;;;7.80;;
1613;SDS011;800;48.824;9.346;2023-08-24T01:53:43;7.33;;;6.73;;
1613;SDS011;800;48.824;9.346;2023-08-24T01:56:12;7.50;;;6.80;;
1613;SDS011;800;48.824;9.346;2023-08-24T01:58:40;8.03;;;7.33;;
1613;SDS011;800;48.824;9.346;2023-08-24T02:01:06;8.33;;;7.40;;
1613;SDS011;800;48.824;9.346;2023-08-24T02:03:35;6.80;;;6.30;;
1613;SDS011;800;48.824;9.346;2023-08-24T02:06:01;8.07;;;7.17;;
1613;SDS011;800;48.824;9.346;2023-08-24T02:08:26;9.20;;;7.27;;
1613;SDS011;800;48.824;9.346;2023-08-24T02:10:52;7.73;;;7.10;;
1613;SDS011;800;48.824;9.346;2023-08-24T02:13:18;6.70;;;6.10;;
1613;SDS011;800;48.824;9.346;2023-08-24T02:15:43;7.47;;;6.87;;
1613;SDS011;800;48.824;9.346;2023-08-24T02:18:09;8.07;;;7.37;;
1613;SDS011;800;48.824;9.346;2023-08-24T02:20:35;8.63;;;7.93;;
1613;SDS011;800;48.824;9.346;2023-08-24T02:23:02;9.57;;;8.10;;
1613;SDS011;800;48.824;9.346;2023-08-24T02:25:28;9.30;;;8.40;;
1613;SDS011;800;48.824;9.346;2023-08-24T02:27:54;8.40;;;7.80;;
1613;SDS011;800;48.824;9.346;2023-08-24T02:30:20;8.27;;;7.57;;
1613;SDS011;800;48.824;9.346;2023-08-24T02:32:45;8.57;;;7.90;;
1613;SDS011;800;48.824;9.346;2023-08-24T02:35:11;8.07;;;7.53;;
1613;SDS011;800;48.824;9.346;2023-08-24T02:37:37;8.87;;;8.07;;
1613;SDS011;800;48.824;9.346;2023-08-24T02:40:02;8.70;;;7.50;;
1613;SDS011;800;48.824;9.346;2023-08-24T02:42:31;8.00;;;7.40;;
1613;SDS011;800;48.824;9.346;2023-08-24T02:44:59;8.60;;;8.00;;
1613;SDS011;800;48.824;9.346;2023-08-24T02:47:24;8.30;;;7.60;;
1613;SDS011;800;48.824;9.346;2023-08-24T02:49:50;8.83;;;8.03;;
1613;SDS011;800;48.824;9.346;2023-08-24T02:52:16;7.87;;;7.17;;
1613;SDS011;800;48.824;9.346;2023-08-24T02:54:42;7.67;;;6.97;;
1613;SDS011;800;48.824;9.346;2023-08-24T02:57:08;8.90;;;7.97;;
1613;SDS011;800;48.824;9.346;2023-08-24T02:59:33;10.37;;;7.60;;
1613;SDS011;800;48.824;9.346;2023-08-24T03:01:59;7.53;;;7.03;;
1613;SDS011;800;48.824;9.346;2023-08-24T03:04:25;7.57;;;6.97;;
1613;SDS011;800;48.824;9.346;2023-08-24T03:06:51;8.07;;;7.37;;
1613;SDS011;800;48.824;9.346;2023-08-24T03:09:16;7.50;;;6.80;;
1613;SDS011;800;48.824;9.346;2023-08-24T03:11:42;9.00;;;8.10;;
1613;SDS011;800;48.824;9.346;2023-08-24T03:14:08;8.40;;;7.60;;
1613;SDS011;800;48.824;9.346;2023-08-24T03:16:33;8.57;;;7.67;;
1613;SDS011;800;48.824;9.346;2023-08-24T03:18:59;7.63;;;7.13;;
1613;SDS011;800;48.824;9.346;2023-08-24T03:21:25;9.37;;;8.07;;
1613;SDS011;800;48.824;9.346;2023-08-24T03:23:50;8.77;;;7.97;;
1613;SDS011;800;48.824;9.346;2023-08-24T03:26:16;9.10;;;8.20;;
1613;SDS011;800;48.824;9.346;2023-08-24T03:28:42;7.53;;;6.93;;
1613;SDS011;800;48.824;9.346;2023-08-24T03:31:08;9.07;;;8.27;;
1613;SDS011;800;48.824;9.346;2023-08-24T03:33:33;11.27;;;7.40;;
1613;SDS011;800;48.824;9.346;2023-08-24T03:35:59;8.33;;;7.60;;
1613;SDS011;800;48.824;9.346;2023-08-24T03:38:26;8.30;;;7.50;;
1613;SDS011;800;48.824;9.346;2023-08-24T03:40:52;11.73;;;7.50;;
1613;SDS011;800;48.824;9.346;2023-08-24T03:43:25;8.30;;;7.70;;
1613;SDS011;800;48.824;9.346;2023-08-24T03:45:51;8.90;;;8.07;;
1613;SDS011;800;48.824;9.346;2023-08-24T03:48:16;8.07;;;7.47;;
1613;SDS011;800;48.824;9.346;2023-08-24T03:50:42;8.63;;;7.80;;
1613;SDS011;800;48.824;9.346;2023-08-24T03:53:07;8.77;;;8.00;;
1613;SDS011;800;48.824;9.346;2023-08-24T03:55:33;9.13;;;7.87;;
1613;SDS011;800;48.824;9.346;2023-08-24T03:57:59;8.67;;;7.90;;
1613;SDS011;800;48.824;9.346;2023-08-24T04:00:24;9.07;;;8.37;;
1613;SDS011;800;48.824;9.346;2023-08-24T04:02:51;9.10;;;8.30;;
1613;SDS011;800;48.824;9.346;2023-08-24T04:05:16;8.50;;;7.70;;
1613;SDS011;800;48.824;9.346;2023-08-24T04:07:42;8.80;;;8.20;;
1613;SDS011;800;48.824;9.346;2023-08-24T04:10:08;8.20;;;7.40;;
1613;SDS011;800;48.824;9.346;2023-08-24T04:12:34;8.93;;;8.03;;
1613;SDS011;800;48.824;9.346;2023-08-24T04:15:00;9.93;;;8.97;;
1613;SDS011;800;48.824;9.346;2023-08-24T04:17:26;8.90;;;8.10;;
1613;SDS011;800;48.824;9.346;2023-08-24T04:19:51;9.20;;;7.73;;
1613;SDS011;800;48.824;9.346;2023-08-24T04:22:17;8.77;;;8.00;;
1613;SDS011;800;48.824;9.346;2023-08-24T04:24:43;9.07;;;8.37;;
1613;SDS011;800;48.824;9.346;2023-08-24T04:27:09;8.63;;;7.83;;
1613;SDS011;800;48.824;9.346;2023-08-24T04:29:34;9.70;;;8.80;;
1613;SDS011;800;48.824;9.346;2023-08-24T04:32:00;10.23;;;7.90;;
1613;SDS011;800;48.824;9.346;2023-08-24T04:34:25;8.47;;;7.77;;
1613;SDS011;800;48.824;9.346;2023-08-24T04:36:51;10.03;;;8.23;;
1613;SDS011;800;48.824;9.346;2023-08-24T04:39:17;9.47;;;8.67;;
1613;SDS011;800;48.824;9.346;2023-08-24T04:41:43;9.80;;;8.83;;
1613;SDS011;800;48.824;9.346;2023-08-24T04:44:10;9.63;;;8.73;;
1613;SDS011;800;48.824;9.346;2023-08-24T04:46:35;8.60;;;7.70;;
1613;SDS011;800;48.824;9.346;2023-08-24T04:49:01;7.90;;;7.20;;
1613;SDS011;800;48.824;9.346;2023-08-24T04:51:26;8.60;;;7.73;;
1613;SDS011;800;48.824;9.346;2023-08-24T04:53:53;10.33;;;9.27;;
1613;SDS011;800;48.824;9.346;2023-08-24T04:56:19;10.00;;;9.20;;
1613;SDS011;800;48.824;9.346;2023-08-24T04:58:57;14.73;;;9.17;;
1613;SDS011;800;48.824;9.346;2023-08-24T05:01:25;9.37;;;8.57;;
1613;SDS011;800;48.824;9.346;2023-08-24T05:03:56;8.00;;;7.40;;
1613;SDS011;800;48.824;9.346;2023-08-24T05:06:22;9.43;;;8.60;;
1613;SDS011;800;48.824;9.346;2023-08-24T05:08:48;8.93;;;7.87;;
1613;SDS011;800;48.824;9.346;2023-08-24T05:11:16;8.80;;;8.10;;
1613;SDS011;800;48.824;9.346;2023-08-24T05:13:43;9.20;;;8.37;;
1613;SDS011;800;48.824;9.346;2023-08-24T05:16:09;8.33;;;7.70;;
1613;SDS011;800;48.824;9.346;2023-08-24T05:18:35;8.23;;;7.70;;
1613;SDS011;800;48.824;9.346;2023-08-24T05:21:04;9.53;;;8.67;;
1613;SDS011;800;48.824;9.346;2023-08-24T05:23:30;9.63;;;8.67;;
1613;SDS011;800;48.824;9.346;2023-08-24T05:25:57;9.53;;;8.53;;
1613;SDS011;800;48.824;9.346;2023-08-24T05:28:23;9.70;;;8.80;;
1613;SDS011;800;48.824;9.346;2023-08-24T05:30:50;8.93;;;8.13;;
1613;SDS011;800;48.824;9.346;2023-08-24T05:33:16;9.30;;;8.40;;
1613;SDS011;800;48.824;9.346;2023-08-24T05:35:42;11.10;;;7.47;;
1613;SDS011;800;48.824;9.346;2023-08-24T05:38:08;8.80;;;8.07;;
1613;SDS011;800;48.824;9.346;2023-08-24T05:40:33;9.03;;;8.23;;
1613;SDS011;800;48.824;9.346;2023-08-24T05:42:59;8.00;;;7.40;;
1613;SDS011;800;48.824;9.346;2023-08-24T05:45:25;9.93;;;8.03;;
1613;SDS011;800;48.824;9.346;2023-08-24T05:47:50;7.93;;;7.13;;
1613;SDS011;800;48.824;9.346;2023-08-24T05:50:16;8.40;;;7.30;;
1613;SDS011;800;48.824;9.346;2023-08-24T05:52:41;8.33;;;7.33;;
1613;SDS011;800;48.824;9.346;2023-08-24T05:55:07;8.17;;;7.33;;
1613;SDS011;800;48.824;9.346;2023-08-24T05:57:33;7.70;;;6.90;;
1613;SDS011;800;48.824;9.346;2023-08-24T05:59:58;9.30;;;7.83;;
1613;SDS011;800;48.824;9.346;2023-08-24T06:02:24;7.00;;;6.30;;
1613;SDS011;800;48.824;9.346;2023-08-24T06:04:49;7.63;;;6.90;;
1613;SDS011;800;48.824;9.346;2023-08-24T06:07:16;6.57;;;6.03;;
1613;SDS011;800;48.824;9.346;2023-08-24T06:09:42;7.30;;;6.67;;
1613;SDS011;800;48.824;9.346;2023-08-24T06:12:07;7.40;;;6.70;;
1613;SDS011;800;48.824;9.346;2023-08-24T06:14:33;7.27;;;6.67;;
1613;SDS011;800;48.824;9.346;2023-08-24T06:16:59;6.77;;;6.13;;
1613;SDS011;800;48.824;9.346;2023-08-24T06:19:24;10.23;;;6.57;;
1613;SDS011;800;48.824;9.346;2023-08-24T06:21:50;8.20;;;7.10;;
1613;SDS011;800;48.824;9.346;2023-08-24T06:24:15;7.27;;;6.57;;
1613;SDS011;800;48.824;9.346;2023-08-24T06:26:41;6.97;;;6.27;;
1613;SDS011;800;48.824;9.346;2023-08-24T06:29:07;8.23;;;6.13;;
1613;SDS011;800;48.824;9.346;2023-08-24T06:31:32;9.27;;;6.97;;
1613;SDS011;800;48.824;9.346;2023-08-24T06:33:58;7.53;;;5.50;;
1613;SDS011;800;48.824;9.346;2023-08-24T06:36:24;6.17;;;5.67;;
1613;SDS011;800;48.824;9.346;2023-08-24T06:38:50;7.70;;;6.80;;
1613;SDS011;800;48.824;9.346;2023-08-24T06:41:16;6.30;;;5.57;;
1613;SDS011;800;48.824;9.346;2023-08-24T06:43:42;6.67;;;6.13;;
1613;SDS011;800;48.824;9.346;2023-08-24T06:46:07;6.20;;;5.60;;
1613;SDS011;800;48.824;9.346;2023-08-24T06:48:36;6.50;;;6.00;;
1613;SDS011;800;48.824;9.346;2023-08-24T06:51:02;6.60;;;6.00;;
1613;SDS011;800;48.824;9.346;2023-08-24T06:53:28;8.03;;;6.53;;
1613;SDS011;800;48.824;9.346;2023-08-24T06:55:54;6.30;;;5.80;;
1613;SDS011;800;48.824;9.346;2023-08-24T06:58:20;7.37;;;6.47;;
1613;SDS011;800;48.824;9.346;2023-08-24T07:00:46;8.03;;;6.90;;
1613;SDS011;800;48.824;9.346;2023-08-24T07:03:12;7.73;;;7.00;;
1613;SDS011;800;48.824;9.346;2023-08-24T07:05:37;6.97;;;6.47;;
1613;SDS011;800;48.824;9.346;2023-08-24T07:08:03;9.63;;;6.70;;
1613;SDS011;800;48.824;9.346;2023-08-24T07:10:29;7.03;;;6.53;;
1613;SDS011;800;48.824;9.346;2023-08-24T07:12:54;6.30;;;5.70;;
1613;SDS011;800;48.824;9.346;2023-08-24T07:15:20;9.30;;;6.77;;
1613;SDS011;800;48.824;9.346;2023-08-24T07:17:46;6.80;;;6.27;;
1613;SDS011;800;48.824;9.346;2023-08-24T07:20:11;7.03;;;6.43;;
1613;SDS011;800;48.824;9.346;2023-08-24T07:22:38;7.20;;;6.50;;
1613;SDS011;800;48.824;9.346;2023-08-24T07:25:04;6.90;;;6.30;;
1613;SDS011;800;48.824;9.346;2023-08-24T07:27:31;8.30;;;7.30;;
1613;SDS011;800;48.824;9.346;2023-08-24T07:29:58;9.40;;;6.63;;
1613;SDS011;800;48.824;9.346;2023-08-24T07:32:24;9.50;;;6.70;;
1613;SDS011;800;48.824;9.346;2023-08-24T07:34:51;7.27;;;6.67;;
1613;SDS011;800;48.824;9.346;2023-08-24T07:37:17;7.00;;;6.30;;
1613;SDS011;800;48.824;9.346;2023-08-24T07:39:42;8.23;;;7.37;;
1613;SDS011;800;48.824;9.346;2023-08-24T07:42:08;5.90;;;5.40;;
1613;SDS011;800;48.824;9.346;2023-08-24T07:44:33;8.70;;;6.50;;
1613;SDS011;800;48.824;9.346;2023-08-24T07:46:59;9.10;;;6.77;;
1613;SDS011;800;48.824;9.346;2023-08-24T07:49:25;6.57;;;6.07;;
1613;SDS011;800;48.824;9.346;2023-08-24T07:51:51;6.67;;;5.90;;
1613;SDS011;800;48.824;9.346;2023-08-24T07:54:16;6.40;;;5.80;;
1613;SDS011;800;48.824;9.346;2023-08-24T07:56:42;6.60;;;6.10;;
1613;SDS011;800;48.824;9.346;2023-08-24T07:59:07;7.17;;;6.20;;
1613;SDS011;800;48.824;9.346;2023-08-24T08:01:33;7.40;;;6.60;;
1613;SDS011;800;48.824;9.346;2023-08-24T08:03:58;7.00;;;5.93;;
1613;SDS011;800;48.824;9.346;2023-08-24T08:06:25;6.87;;;6.30;;
1613;SDS011;800;48.824;9.346;2023-08-24T08:08:51;6.87;;;5.80;;
1613;SDS011;800;48.824;9.346;2023-08-24T08:11:17;7.57;;;6.80;;
1613;SDS011;800;48.824;9.346;2023-08-24T08:13:43;7.03;;;6.43;;
1613;SDS011;800;48.824;9.346;2023-08-24T08:16:09;6.63;;;6.03;;
1613;SDS011;800;48.824;9.346;2023-08-24T08:18:36;7.53;;;6.40;;
1613;SDS011;800;48.824;9.346;2023-08-24T08:21:08;5.97;;;5.37;;
1613;SDS011;800;48.824;9.346;2023-08-24T08:23:35;6.60;;;6.00;;
1613;SDS011;800;48.824;9.346;2023-08-24T08:26:01;9.23;;;5.60;;
1613;SDS011;800;48.824;9.346;2023-08-24T08:28:26;5.23;;;4.80;;
1613;SDS011;800;48.824;9.346;2023-08-24T08:30:52;10.23;;;6.27;;
1613;SDS011;800;48.824;9.346;2023-08-24T08:33:18;9.33;;;6.50;;
1613;SDS011;800;48.824;9.346;2023-08-24T08:35:44;7.40;;;5.60;;
1613;SDS011;800;48.824;9.346;2023-08-24T08:38:10;8.10;;;4.97;;
1613;SDS011;800;48.824;9.346;2023-08-24T08:40:36;10.67;;;5.70;;
1613;SDS011;800;48.824;9.346;2023-08-24T08:43:02;5.83;;;5.20;;
1613;SDS011;800;48.824;9.346;2023-08-24T08:45:28;6.10;;;5.60;;
1613;SDS011;800;48.824;9.346;2023-08-24T08:48:01;7.80;;;5.60;;
1613;SDS011;800;48.824;9.346;2023-08-24T08:50:28;10.17;;;5.33;;
1613;SDS011;800;48.824;9.346;2023-08-24T08:52:56;6.13;;;5.63;;
1613;SDS011;800;48.824;9.346;2023-08-24T08:55:23;6.60;;;5.17;;
1613;SDS011;800;48.824;9.346;2023-08-24T08:57:50;6.73;;;5.27;;
1613;SDS011;800;48.824;9.346;2023-08-24T09:00:18;6.40;;;5.90;;
1613;SDS011;800;48.824;9.346;2023-08-24T09:02:45;5.87;;;5.43;;
1613;SDS011;800;48.824;9.346;2023-08-24T09:05:14;8.90;;;6.27;;
1613;SDS011;800;48.824;9.346;2023-08-24T09:07:40;5.40;;;5.00;;
1613;SDS011;800;48.824;9.346;2023-08-24T09:10:06;7.03;;;6.00;;
1613;SDS011;800;48.824;9.346;2023-08-24T09:12:33;5.93;;;5.40;;
1613;SDS011;800;48.824;9.346;2023-08-24T09:14:59;7.00;;;6.00;;
1613;SDS011;800;48.824;9.346;2023-08-24T09:17:25;9.97;;;6.33;;
1613;SDS011;800;48.824;9.346;2023-08-24T09:19:53;6.40;;;5.90;;
1613;SDS011;800;48.824;9.346;2023-08-24T09:22:22;6.27;;;5.67;;
1613;SDS011;800;48.824;9.346;2023-08-24T09:24:48;5.57;;;5.10;;
1613;SDS011;800;48.824;9.346;2023-08-24T09:27:20;5.77;;;5.27;;
1613;SDS011;800;48.824;9.346;2023-08-24T09:32:15;6.67;;;5.70;;
1613;SDS011;800;48.824;9.346;2023-08-24T09:34:47;6.37;;;5.80;;
1613;SDS011;800;48.824;9.346;2023-08-24T09:37:16;7.07;;;5.77;;
1613;SDS011;800;48.824;9.346;2023-08-24T09:39:42;7.17;;;6.47;;
1613;SDS011;800;48.824;9.346;2023-08-24T09:42:09;8.10;;;5.80;;
1613;SDS011;800;48.824;9.346;2023-08-24T09:44:34;9.83;;;6.20;;
1613;SDS011;800;48.824;9.346;2023-08-24T09:47:00;11.53;;;6.37;;
1613;SDS011;800;48.824;9.346;2023-08-24T09:49:26;7.07;;;6.47;;
1613;SDS011;800;48.824;9.346;2023-08-24T09:51:55;8.00;;;5.90;;
1613;SDS011;800;48.824;9.346;2023-08-24T09:54:24;6.90;;;6.20;;
1613;SDS011;800;48.824;9.346;2023-08-24T09:56:52;6.73;;;6.23;;
1613;SDS011;800;48.824;9.346;2023-08-24T09:59:21;11.60;;;6.90;;
1613;SDS011;800;48.824;9.346;2023-08-24T10:01:49;6.57;;;6.00;;
1613;SDS011;800;48.824;9.346;2023-08-24T10:04:25;6.87;;;6.30;;
1613;SDS011;800;48.824;9.346;2023-08-24T10:06:59;6.63;;;6.13;;
1613;SDS011;800;48.824;9.346;2023-08-24T10:09:43;6.87;;;6.20;;
1613;SDS011;800;48.824;9.346;2023-08-24T10:12:09;7.43;;;6.80;;
1613;SDS011;800;48.824;9.346;2023-08-24T10:14:40;7.30;;;6.60;;
1613;SDS011;800;48.824;9.346;2023-08-24T10:17:10;8.97;;;6.20;;
1613;SDS011;800;48.824;9.346;2023-08-24T10:19:36;8.20;;;6.87;;
1613;SDS011;800;48.824;9.346;2023-08-24T10:22:02;7.40;;;6.13;;
1613;SDS011;800;48.824;9.346;2023-08-24T10:24:29;6.33;;;5.90;;
1613;SDS011;800;48.824;9.346;2023-08-24T10:26:56;7.10;;;6.40;;
1613;SDS011;800;48.824;9.346;2023-08-24T10:29:22;7.20;;;6.70;;
1613;SDS011;800;48.824;9.346;2023-08-24T10:31:49;7.10;;;6.60;;
1613;SDS011;800;48.824;9.346;2023-08-24T10:34:15;8.60;;;6.47;;
1613;SDS011;800;48.824;9.346;2023-08-24T10:36:41;6.33;;;5.33;;
1613;SDS011;800;48.824;9.346;2023-08-24T10:39:07;6.73;;;6.33;;
1613;SDS011;800;48.824;9.346;2023-08-24T10:41:48;6.70;;;6.10;;
1613;SDS011;800;48.824;9.346;2023-08-24T10:44:23;6.70;;;6.10;;
1613;SDS011;800;48.824;9.346;2023-08-24T10:47:14;6.97;;;6.03;;
1613;SDS011;800;48.824;9.346;2023-08-24T10:49:45;6.87;;;6.20;;
1613;SDS011;800;48.824;9.346;2023-08-24T10:54:56;6.93;;;6.43;;
1613;SDS011;800;48.824;9.346;2023-08-24T10:57:22;9.03;;;6.20;;
1613;SDS011;800;48.824;9.346;2023-08-24T11:00:11;6.50;;;6.00;;
1613;SDS011;800;48.824;9.346;2023-08-24T11:05:20;7.27;;;6.53;;
1613;SDS011;800;48.824;9.346;2023-08-24T11:07:59;6.67;;;6.27;;
1613;SDS011;800;48.824;9.346;2023-08-24T11:10:30;6.77;;;6.37;;
1613;SDS011;800;48.824;9.346;2023-08-24T11:13:14;7.30;;;6.60;;
1613;SDS011;800;48.824;9.346;2023-08-24T11:15:41;6.57;;;6.03;;
1613;SDS011;800;48.824;9.346;2023-08-24T11:18:13;7.07;;;6.57;;
1613;SDS011;800;48.824;9.346;2023-08-24T11:20:48;7.17;;;6.27;;
1613;SDS011;800;48.824;9.346;2023-08-24T11:23:16;6.80;;;6.30;;
1613;SDS011;800;48.824;9.346;2023-08-24T11:25:42;7.90;;;7.30;;
1613;SDS011;800;48.824;9.346;2023-08-24T11:28:07;7.37;;;6.67;;
1613;SDS011;800;48.824;9.346;2023-08-24T11:30:33;7.00;;;6.40;;
1613;SDS011;800;48.824;9.346;2023-08-24T11:33:00;8.27;;;7.40;;
1613;SDS011;800;48.824;9.346;2023-08-24T11:35:26;6.90;;;6.30;;
1613;SDS011;800;48.824;9.346;2023-08-24T11:37:52;8.07;;;7.37;;
1613;SDS011;800;48.824;9.346;2023-08-24T11:40:18;6.80;;;6.40;;
1613;SDS011;800;48.824;9.346;2023-08-24T11:42:45;7.30;;;6.80;;
1613;SDS011;800;48.824;9.346;2023-08-24T11:45:18;8.00;;;6.87;;
1613;SDS011;800;48.824;9.346;2023-08-24T11:47:43;9.20;;;8.33;;
1613;SDS011;800;48.824;9.346;2023-08-24T11:50:09;12.23;;;6.70;;
1613;SDS011;800;48.824;9.346;2023-08-24T11:52:42;7.37;;;6.87;;
1613;SDS011;800;48.824;9.346;2023-08-24T11:55:08;8.97;;;6.67;;
1613;SDS011;800;48.824;9.346;2023-08-24T11:57:36;7.90;;;6.93;;
1613;SDS011;800;48.824;9.346;2023-08-24T12:00:03;7.07;;;6.57;;
1613;SDS011;800;48.824;9.346;2023-08-24T12:02:30;7.27;;;6.77;;
1613;SDS011;800;48.824;9.346;2023-08-24T12:04:56;7.47;;;6.87;;
1613;SDS011;800;48.824;9.346;2023-08-24T12:07:22;7.93;;;7.13;;
1613;SDS011;800;48.824;9.346;2023-08-24T12:09:49;7.83;;;7.10;;
1613;SDS011;800;48.824;9.346;2023-08-24T12:12:18;7.10;;;6.60;;
1613;SDS011;800;48.824;9.346;2023-08-24T12:14:48;7.20;;;6.50;;
1613;SDS011;800;48.824;9.346;2023-08-24T12:17:15;9.70;;;6.80;;
1613;SDS011;800;48.824;9.346;2023-08-24T12:19:57;7.90;;;6.93;;
1613;SDS011;800;48.824;9.346;2023-08-24T12:22:25;7.63;;;7.00;;
1613;SDS011;800;48.824;9.346;2023-08-24T12:24:50;7.90;;;7.00;;
1613;SDS011;800;48.824;9.346;2023-08-24T12:27:19;10.03;;;6.60;;
1613;SDS011;800;48.824;9.346;2023-08-24T12:29:46;7.73;;;7.03;;
1613;SDS011;800;48.824;9.346;2023-08-24T12:32:12;7.00;;;6.50;;
1613;SDS011;800;48.824;9.346;2023-08-24T12:34:37;7.10;;;6.60;;
1613;SDS011;800;48.824;9.346;2023-08-24T12:37:03;7.70;;;7.20;;
1613;SDS011;800;48.824;9.346;2023-08-24T12:39:32;8.33;;;7.60;;
1613;SDS011;800;48.824;9.346;2023-08-24T12:42:04;8.03;;;7.27;;
1613;SDS011;800;48.824;9.346;2023-08-24T12:44:30;7.53;;;6.93;;
1613;SDS011;800;48.824;9.346;2023-08-24T12:46:55;7.70;;;7.10;;
1613;SDS011;800;48.824;9.346;2023-08-24T12:49:21;8.10;;;7.40;;
1613;SDS011;800;48.824;9.346;2023-08-24T12:51:47;7.23;;;6.63;;
1613;SDS011;800;48.824;9.346;2023-08-24T12:54:12;7.00;;;6.50;;
1613;SDS011;800;48.824;9.346;2023-08-24T12:56:38;7.40;;;6.77;;
1613;SDS011;800;48.824;9.346;2023-08-24T12:59:05;9.93;;;6.97;;
1613;SDS011;800;48.824;9.346;2023-08-24T13:01:31;7.60;;;6.90;;
1613;SDS011;800;48.824;9.346;2023-08-24T13:03:57;7.93;;;7.27;;
1613;SDS011;800;48.824;9.346;2023-08-24T13:06:22;7.63;;;6.87;;
1613;SDS011;800;48.824;9.346;2023-08-24T13:08:48;7.37;;;6.67;;
1613;SDS011;800;48.824;9.346;2023-08-24T13:11:14;6.90;;;5.90;;
1613;SDS011;800;48.824;9.346;2023-08-24T13:13:39;8.43;;;7.60;;
1613;SDS011;800;48.824;9.346;2023-08-24T13:16:06;7.60;;;6.87;;
1613;SDS011;800;48.824;9.346;2023-08-24T13:18:32;8.20;;;7.40;;
1613;SDS011;800;48.824;9.346;2023-08-24T13:20:57;8.00;;;7.17;;
1613;SDS011;800;48.824;9.346;2023-08-24T13:23:23;8.53;;;7.27;;
1613;SDS011;800;48.824;9.346;2023-08-24T13:25:48;8.60;;;7.17;;
1613;SDS011;800;48.824;9.346;2023-08-24T13:28:14;7.33;;;6.60;;
1613;SDS011;800;48.824;9.346;2023-08-24T13:30:40;9.87;;;6.90;;
1613;SDS011;800;48.824;9.346;2023-08-24T13:33:05;8.23;;;7.43;;
1613;SDS011;800;48.824;9.346;2023-08-24T13:35:31;9.10;;;7.03;;
1613;SDS011;800;48.824;9.346;2023-08-24T13:37:57;7.30;;;6.70;;
1613;SDS011;800;48.824;9.346;2023-08-24T13:40:23;10.53;;;7.43;;
1613;SDS011;800;48.824;9.346;2023-08-24T13:42:48;7.23;;;6.60;;
1613;SDS011;800;48.824;9.346;2023-08-24T13:45:14;7.40;;;6.80;;
1613;SDS011;800;48.824;9.346;2023-08-24T13:47:40;8.30;;;7.60;;
1613;SDS011;800;48.824;9.346;2023-08-24T13:50:06;7.60;;;7.00;;
1613;SDS011;800;48.824;9.346;2023-08-24T13:52:32;10.73;;;6.87;;
1613;SDS011;800;48.824;9.346;2023-08-24T13:54:58;9.33;;;7.47;;
1613;SDS011;800;48.824;9.346;2023-08-24T13:57:24;9.73;;;6.57;;
1613;SDS011;800;48.824;9.346;2023-08-24T13:59:50;9.57;;;6.53;;
1613;SDS011;800;48.824;9.346;2023-08-24T14:02:15;8.33;;;6.70;;
1613;SDS011;800;48.824;9.346;2023-08-24T14:04:41;7.90;;;6.90;;
1613;SDS011;800;48.824;9.346;2023-08-24T14:07:06;7.70;;;6.90;;
1613;SDS011;800;48.824;9.346;2023-08-24T14:09:32;7.73;;;7.00;;
1613;SDS011;800;48.824;9.346;2023-08-24T14:11:58;7.97;;;7.17;;
1613;SDS011;800;48.824;9.346;2023-08-24T14:14:23;9.53;;;6.80;;
1613;SDS011;800;48.824;9.346;2023-08-24T14:16:55;7.32;;;6.72;;
1613;SDS011;800;48.824;9.346;2023-08-24T14:19:21;7.83;;;7.03;;
1613;SDS011;800;48.824;9.346;2023-08-24T14:21:47;8.60;;;7.17;;
1613;SDS011;800;48.824;9.346;2023-08-24T14:24:13;10.50;;;6.93;;
1613;SDS011;800;48.824;9.346;2023-08-24T14:26:38;7.30;;;6.60;;
1613;SDS011;800;48.824;9.346;2023-08-24T14:29:10;8.90;;;6.50;;
1613;SDS011;800;48.824;9.346;2023-08-24T14:31:36;8.63;;;6.63;;
1613;SDS011;800;48.824;9.346;2023-08-24T14:34:01;6.67;;;6.10;;
1613;SDS011;800;48.824;9.346;2023-08-24T14:36:28;8.10;;;6.43;;
1613;SDS011;800;48.824;9.346;2023-08-24T14:38:54;10.37;;;6.93;;
1613;SDS011;800;48.824;9.346;2023-08-24T14:41:20;9.17;;;6.30;;
1613;SDS011;800;48.824;9.346;2023-08-24T14:43:46;10.63;;;7.03;;
1613;SDS011;800;48.824;9.346;2023-08-24T14:46:12;15.97;;;6.83;;
1613;SDS011;800;48.824;9.346;2023-08-24T14:48:38;9.40;;;7.20;;
1613;SDS011;800;48.824;9.346;2023-08-24T14:51:04;11.77;;;6.20;;
1613;SDS011;800;48.824;9.346;2023-08-24T14:53:30;7.40;;;6.80;;
1613;SDS011;800;48.824;9.346;2023-08-24T14:55:56;11.73;;;6.90;;
1613;SDS011;800;48.824;9.346;2023-08-24T14:58:22;8.37;;;6.77;;
1613;SDS011;800;48.824;9.346;2023-08-24T15:00:49;8.60;;;7.80;;
1613;SDS011;800;48.824;9.346;2023-08-24T15:03:15;9.57;;;6.50;;
1613;SDS011;800;48.824;9.346;2023-08-24T15:05:42;8.10;;;7.20;;
1613;SDS011;800;48.824;9.346;2023-08-24T15:08:10;9.47;;;5.60;;
1613;SDS011;800;48.824;9.346;2023-08-24T15:10:36;11.30;;;7.03;;
1613;SDS011;800;48.824;9.346;2023-08-24T15:13:03;9.57;;;6.50;;
1613;SDS011;800;48.824;9.346;2023-08-24T15:15:29;13.80;;;6.40;;
1613;SDS011;800;48.824;9.346;2023-08-24T15:17:55;27.13;;;6.20;;
1613;SDS011;800;48.824;9.346;2023-08-24T15:20:20;11.43;;;5.00;;
1613;SDS011;800;48.824;9.346;2023-08-24T15:22:46;7.47;;;4.20;;
1613;SDS011;800;48.824;9.346;2023-08-24T15:25:11;6.90;;;4.60;;
1613;SDS011;800;48.824;9.346;2023-08-24T15:27:37;8.57;;;5.60;;
1613;SDS011;800;48.824;9.346;2023-08-24T15:30:03;6.70;;;5.73;;
1613;SDS011;800;48.824;9.346;2023-08-24T15:32:30;4.23;;;2.90;;
1613;SDS011;800;48.824;9.346;2023-08-24T15:34:57;6.50;;;5.20;;
1613;SDS011;800;48.824;9.346;2023-08-24T15:37:23;11.77;;;5.37;;
1613;SDS011;800;48.824;9.346;2023-08-24T15:39:48;8.37;;;4.87;;